Time;durP1;ratioP1;P1;durP2;ratioP2;P2;SDS_P1;SDS_P2;PMS_P1;PMS_P2;Temp;Humidity;BMP_temperature;BMP_pressure;BME280_temperature;BME280_humidity;BME280_pressure;Samples;Min_cycle;Max_cycle;Signal;HPM_P1;HPM_P2
2023/09/30 00:00:18;;;;;;;5.40;4.10;;;13.90;99.90;;;;;;5054001;28;20167;-59
2023/09/30 00:02:44;;;;;;;5.03;3.40;;;14.00;99.90;;;;;;5054302;28;20174;-59
2023/09/30 00:05:10;;;;;;;6.80;2.13;;;14.00;99.90;;;;;;5053897;28;20177;-59
2023/09/30 00:07:36;;;;;;;2.17;2.00;;;14.00;99.90;;;;;;5053524;28;20258;-58
2023/09/30 00:10:03;;;;;;;4.17;1.70;;;14.10;99.90;;;;;;5053709;28;20412;-59
2023/09/30 00:12:28;;;;;;;2.70;1.70;;;14.10;99.90;;;;;;5053725;28;20486;-59
2023/09/30 00:14:54;;;;;;;1.40;1.30;;;14.00;99.90;;;;;;5053484;28;20417;-59
2023/09/30 00:17:20;;;;;;;4.27;2.83;;;13.90;99.90;;;;;;5053789;28;20173;-59
2023/09/30 00:19:46;;;;;;;6.63;2.87;;;13.90;99.90;;;;;;5053627;28;20910;-59
2023/09/30 00:22:12;;;;;;;5.33;2.20;;;14.00;99.90;;;;;;5055075;28;20412;-59
2023/09/30 00:24:38;;;;;;;1.17;0.97;;;14.00;99.90;;;;;;5053414;28;20213;-59
2023/09/30 00:27:03;;;;;;;4.87;2.30;;;13.90;99.90;;;;;;5053024;28;20428;-59
2023/09/30 00:29:29;;;;;;;1.50;1.17;;;13.80;99.90;;;;;;5053518;28;20247;-59
2023/09/30 00:31:54;;;;;;;8.10;2.03;;;13.80;99.90;;;;;;5053278;28;20175;-59
2023/09/30 00:34:20;;;;;;;8.67;2.93;;;13.80;99.90;;;;;;5053349;28;20557;-59
2023/09/30 00:36:47;;;;;;;6.30;2.30;;;13.80;99.90;;;;;;5052738;28;20198;-59
2023/09/30 00:39:13;;;;;;;5.70;2.00;;;13.90;99.90;;;;;;5052843;28;20216;-59
2023/09/30 00:41:39;;;;;;;7.47;1.60;;;14.00;99.90;;;;;;5053268;28;20912;-59
2023/09/30 00:44:05;;;;;;;3.90;2.53;;;14.00;99.90;;;;;;5052987;28;20452;-59
2023/09/30 00:46:32;;;;;;;6.50;2.70;;;14.00;99.90;;;;;;5052709;28;20482;-59
2023/09/30 00:49:00;;;;;;;2.93;2.70;;;14.00;99.90;;;;;;5053347;28;20852;-59
2023/09/30 00:51:26;;;;;;;2.77;2.00;;;14.10;99.90;;;;;;5053139;28;20413;-59
2023/09/30 00:53:54;;;;;;;6.23;1.70;;;14.10;99.90;;;;;;5052871;28;20462;-59
2023/09/30 00:56:23;;;;;;;3.63;2.20;;;14.00;99.90;;;;;;5052641;28;20442;-59
2023/09/30 00:58:51;;;;;;;4.10;3.23;;;14.00;99.90;;;;;;5052906;28;20925;-59
2023/09/30 01:01:18;;;;;;;4.20;1.90;;;13.90;99.90;;;;;;5053239;28;20795;-59
2023/09/30 01:03:45;;;;;;;6.17;1.20;;;13.90;99.90;;;;;;5038506;28;20461;-59
2023/09/30 01:06:10;;;;;;;4.13;1.43;;;13.90;99.90;;;;;;5032433;28;20468;-59
2023/09/30 01:08:36;;;;;;;5.50;1.90;;;13.80;99.90;;;;;;5032738;28;20437;-58
2023/09/30 01:11:02;;;;;;;2.50;1.33;;;13.90;99.90;;;;;;5032777;28;20366;-59
2023/09/30 01:13:35;;;;;;;2.67;2.00;;;13.90;99.90;;;;;;5032414;28;20183;-59
2023/09/30 01:16:11;;;;;;;4.40;1.70;;;13.80;99.90;;;;;;5032253;28;20210;-59
2023/09/30 01:18:38;;;;;;;3.20;1.80;;;13.80;99.90;;;;;;5032617;28;20410;-59
2023/09/30 01:21:05;;;;;;;6.43;2.57;;;13.80;99.90;;;;;;5032778;28;20931;-59
2023/09/30 01:23:38;;;;;;;0.97;0.80;;;13.80;99.90;;;;;;5032319;28;20445;-59
2023/09/30 01:26:10;;;;;;;4.27;1.93;;;13.80;99.90;;;;;;5032040;28;20439;-59
2023/09/30 01:28:35;;;;;;;1.73;1.23;;;13.90;99.90;;;;;;5032344;28;20413;-59
2023/09/30 01:31:02;;;;;;;2.10;1.20;;;14.00;99.90;;;;;;5032326;28;20412;-59
2023/09/30 01:33:28;;;;;;;2.70;1.47;;;14.00;99.90;;;;;;5032405;28;20778;-59
2023/09/30 01:35:54;;;;;;;1.83;1.53;;;14.00;99.90;;;;;;5031925;28;20491;-59
2023/09/30 01:38:19;;;;;;;2.80;1.87;;;14.00;99.90;;;;;;5032208;28;20926;-59
2023/09/30 01:40:46;;;;;;;1.57;1.47;;;14.00;99.90;;;;;;5032025;28;20496;-59
2023/09/30 01:43:16;;;;;;;2.07;1.30;;;13.90;99.90;;;;;;5032879;28;20477;-59
2023/09/30 01:45:42;;;;;;;1.10;1.00;;;13.90;99.90;;;;;;5032025;28;20429;-59
2023/09/30 01:48:10;;;;;;;2.40;0.80;;;13.90;99.90;;;;;;5031933;28;20405;-59
2023/09/30 01:50:37;;;;;;;2.23;1.57;;;14.00;99.90;;;;;;5013624;28;20967;-59
2023/09/30 01:53:06;;;;;;;2.83;1.80;;;14.00;99.90;;;;;;5031731;28;20405;-59
2023/09/30 01:55:32;;;;;;;1.63;1.53;;;14.00;99.90;;;;;;5031697;28;20936;-59
2023/09/30 01:57:58;;;;;;;4.33;1.73;;;14.00;99.90;;;;;;5031694;28;20402;-59
2023/09/30 02:00:24;;;;;;;3.73;2.00;;;14.10;99.90;;;;;;5031797;28;20415;-59
2023/09/30 02:02:49;;;;;;;5.13;1.77;;;14.10;99.90;;;;;;5031776;28;20228;-59
2023/09/30 02:05:15;;;;;;;2.30;1.47;;;14.20;99.90;;;;;;5031759;28;20633;-59
2023/09/30 02:07:41;;;;;;;4.40;1.10;;;14.10;99.90;;;;;;5031312;28;20667;-59
2023/09/30 02:10:07;;;;;;;1.20;1.07;;;14.10;99.90;;;;;;5031753;28;20170;-59
2023/09/30 02:12:33;;;;;;;2.20;1.30;;;14.00;99.90;;;;;;5031806;28;20765;-59
2023/09/30 02:14:58;;;;;;;1.73;1.33;;;14.10;99.90;;;;;;5031438;28;20492;-59
2023/09/30 02:17:24;;;;;;;1.60;1.50;;;14.20;99.90;;;;;;5092097;22;20286;-60
2023/09/30 02:19:50;;;;;;;6.53;1.53;;;14.30;99.90;;;;;;5091531;28;20165;-60
2023/09/30 02:22:15;;;;;;;2.23;1.60;;;14.30;99.90;;;;;;5091477;28;20171;-60
2023/09/30 02:24:41;;;;;;;2.20;1.20;;;14.30;99.90;;;;;;5091391;28;20207;-59
2023/09/30 02:27:07;;;;;;;1.10;0.90;;;14.20;99.90;;;;;;5091121;28;20204;-60
2023/09/30 02:29:33;;;;;;;3.33;1.80;;;14.20;99.90;;;;;;5073385;28;20180;-60
2023/09/30 02:31:59;;;;;;;5.17;1.07;;;14.10;99.90;;;;;;5091387;28;20407;-60
2023/09/30 02:34:24;;;;;;;3.67;2.03;;;14.10;99.90;;;;;;5091488;28;20179;-60
2023/09/30 02:36:51;;;;;;;1.27;0.90;;;14.00;99.90;;;;;;5090886;28;20233;-59
2023/09/30 02:39:17;;;;;;;3.40;1.80;;;14.00;99.90;;;;;;5091394;28;20225;-59
2023/09/30 02:41:43;;;;;;;8.80;2.27;;;14.00;99.90;;;;;;5091496;28;20493;-60
2023/09/30 02:44:09;;;;;;;3.27;1.50;;;14.20;99.90;;;;;;5090275;28;21047;-60
2023/09/30 02:46:35;;;;;;;4.13;2.23;;;14.30;99.90;;;;;;5090987;28;20451;-59
2023/09/30 02:49:03;;;;;;;3.63;1.30;;;14.40;99.90;;;;;;5091366;28;20537;-60
2023/09/30 02:51:30;;;;;;;4.97;1.17;;;14.40;99.90;;;;;;5091174;28;20238;-60
2023/09/30 02:53:56;;;;;;;2.73;1.17;;;14.40;99.90;;;;;;5091168;28;20928;-60
2023/09/30 02:56:24;;;;;;;0.87;0.70;;;14.40;99.90;;;;;;5090763;28;20427;-60
2023/09/30 02:58:51;;;;;;;1.13;1.03;;;14.40;99.90;;;;;;5091175;28;20167;-60
2023/09/30 03:01:17;;;;;;;6.80;2.60;;;14.50;99.90;;;;;;5092945;28;20437;-60
2023/09/30 03:03:46;;;;;;;2.60;2.40;;;14.50;99.90;;;;;;5095021;28;20445;-60
2023/09/30 03:06:12;;;;;;;1.10;0.87;;;14.60;99.90;;;;;;5094702;28;20498;-60
2023/09/30 03:08:37;;;;;;;6.30;1.23;;;14.60;99.90;;;;;;5094943;28;20416;-60
2023/09/30 03:11:04;;;;;;;2.10;0.87;;;14.60;99.90;;;;;;5094925;28;20264;-60
2023/09/30 03:13:30;;;;;;;1.73;1.33;;;14.50;99.90;;;;;;5094914;28;20180;-60
2023/09/30 03:15:56;;;;;;;7.10;1.80;;;14.40;99.90;;;;;;5094321;28;20769;-59
2023/09/30 03:18:26;;;;;;;1.33;1.00;;;14.20;99.90;;;;;;5095032;28;20471;-59
2023/09/30 03:21:00;;;;;;;1.60;1.10;;;14.20;99.90;;;;;;5094787;28;20486;-60
2023/09/30 03:23:30;;;;;;;2.00;1.90;;;14.20;99.90;;;;;;5094618;28;20950;-59
2023/09/30 03:25:57;;;;;;;4.20;2.50;;;14.20;99.90;;;;;;5094302;28;20404;-59
2023/09/30 03:28:23;;;;;;;1.10;0.70;;;14.30;99.90;;;;;;5094655;28;20406;-59
2023/09/30 03:30:48;;;;;;;1.47;1.27;;;14.40;99.90;;;;;;5094628;28;20395;-59
2023/09/30 03:33:14;;;;;;;6.63;1.50;;;14.50;99.90;;;;;;5094624;28;20412;-59
2023/09/30 03:35:40;;;;;;;1.63;1.03;;;14.40;99.90;;;;;;5094421;28;20165;-60
2023/09/30 03:38:09;;;;;;;8.03;1.93;;;14.50;99.90;;;;;;5093388;28;20184;-59
2023/09/30 03:40:38;;;;;;;6.00;4.03;;;14.60;99.90;;;;;;5094092;28;20414;-59
2023/09/30 03:43:07;;;;;;;2.10;1.50;;;14.70;99.90;;;;;;5094279;28;20897;-60
2023/09/30 03:45:32;;;;;;;2.97;1.30;;;14.60;99.90;;;;;;5093656;28;20780;-59
2023/09/30 03:47:58;;;;;;;2.30;1.63;;;14.60;99.90;;;;;;5093884;28;20426;-59
2023/09/30 03:50:24;;;;;;;2.20;1.80;;;14.70;99.90;;;;;;5094026;28;20424;-59
2023/09/30 03:52:50;;;;;;;0.87;0.83;;;14.70;99.90;;;;;;5094140;28;20167;-59
2023/09/30 03:55:17;;;;;;;2.20;1.77;;;14.70;99.90;;;;;;5094200;28;20410;-59
2023/09/30 03:57:47;;;;;;;5.90;2.73;;;14.80;99.90;;;;;;5093751;28;20431;-59
2023/09/30 04:00:16;;;;;;;2.83;0.77;;;14.80;99.90;;;;;;5094132;28;20411;-59
2023/09/30 04:02:43;;;;;;;0.80;0.80;;;14.70;99.90;;;;;;5094095;28;20413;-59
2023/09/30 04:05:14;;;;;;;5.70;1.80;;;14.60;99.90;;;;;;5093809;28;20540;-59
2023/09/30 04:07:40;;;;;;;2.20;1.80;;;14.60;99.90;;;;;;5093269;28;20427;-59
2023/09/30 04:10:06;;;;;;;3.07;1.70;;;14.70;99.90;;;;;;5093731;28;20417;-60
2023/09/30 04:12:32;;;;;;;0.87;0.87;;;14.70;99.90;;;;;;5092950;28;20896;-64
2023/09/30 04:14:58;;;;;;;4.77;2.10;;;14.70;99.90;;;;;;5093670;28;20447;-63
2023/09/30 04:17:24;;;;;;;1.67;1.60;;;14.60;99.90;;;;;;5092723;28;20207;-59
2023/09/30 04:19:52;;;;;;;1.73;1.63;;;14.50;99.90;;;;;;5093525;28;20444;-59
2023/09/30 04:22:19;;;;;;;4.10;2.00;;;14.50;99.90;;;;;;5093383;28;20172;-60
2023/09/30 04:24:45;;;;;;;4.43;1.83;;;14.40;99.90;;;;;;5093700;28;20462;-60
2023/09/30 04:27:11;;;;;;;1.57;0.93;;;14.30;99.90;;;;;;5093328;28;20878;-58
2023/09/30 04:29:37;;;;;;;1.73;0.87;;;14.30;99.90;;;;;;5093535;28;20453;-59
2023/09/30 04:32:04;;;;;;;5.00;2.10;;;14.30;99.90;;;;;;5093115;28;20255;-60
2023/09/30 04:34:30;;;;;;;4.80;2.90;;;14.30;99.90;;;;;;5093245;28;20479;-59
2023/09/30 04:36:56;;;;;;;2.00;0.93;;;14.40;99.90;;;;;;5093113;28;20525;-59
2023/09/30 04:39:22;;;;;;;2.57;0.70;;;14.50;99.90;;;;;;5093265;28;20236;-59
2023/09/30 04:41:48;;;;;;;12.53;1.63;;;14.60;99.90;;;;;;5093257;28;20176;-59
2023/09/30 04:44:14;;;;;;;3.60;2.17;;;14.60;99.90;;;;;;5093088;28;20446;-60
2023/09/30 04:46:40;;;;;;;1.50;1.40;;;14.70;99.90;;;;;;5092845;28;20626;-61
2023/09/30 04:49:09;;;;;;;2.80;1.10;;;14.60;99.90;;;;;;5092699;28;20415;-59
2023/09/30 04:51:35;;;;;;;3.27;1.30;;;14.50;99.90;;;;;;5093278;28;20787;-60
2023/09/30 04:54:02;;;;;;;5.77;1.93;;;14.50;99.90;;;;;;5092978;28;20793;-60
2023/09/30 04:56:27;;;;;;;5.20;1.93;;;14.40;99.90;;;;;;5092445;28;20463;-59
2023/09/30 04:58:53;;;;;;;1.67;1.57;;;14.40;99.90;;;;;;5092905;28;20503;-60
2023/09/30 05:01:19;;;;;;;5.03;1.87;;;14.50;99.90;;;;;;5092836;28;20252;-60
2023/09/30 05:03:48;;;;;;;7.90;2.03;;;14.50;99.90;;;;;;5092721;28;20634;-60
2023/09/30 05:06:14;;;;;;;1.90;1.37;;;14.50;99.90;;;;;;5092543;28;20197;-60
2023/09/30 05:08:39;;;;;;;5.13;3.10;;;14.50;99.90;;;;;;5092720;28;20957;-59
2023/09/30 05:11:05;;;;;;;4.80;1.83;;;14.50;99.90;;;;;;5092722;28;20671;-60
2023/09/30 05:13:31;;;;;;;5.47;2.30;;;14.60;99.90;;;;;;5092727;28;20545;-60
2023/09/30 05:15:56;;;;;;;4.10;1.70;;;14.70;99.90;;;;;;5092114;28;20243;-60
2023/09/30 05:18:23;;;;;;;5.40;3.00;;;14.70;99.90;;;;;;5092310;28;20190;-60
2023/09/30 05:20:49;;;;;;;2.37;2.27;;;14.80;99.90;;;;;;5092559;28;20169;-60
2023/09/30 05:23:15;;;;;;;2.07;1.87;;;14.80;99.90;;;;;;5092205;28;20428;-60
2023/09/30 05:25:40;;;;;;;0.80;0.80;;;14.80;99.90;;;;;;5092317;28;20167;-60
2023/09/30 05:28:06;;;;;;;1.37;1.17;;;14.70;99.90;;;;;;5092078;28;20189;-60
2023/09/30 05:30:33;;;;;;;4.70;1.87;;;14.70;99.90;;;;;;5092213;28;20721;-59
2023/09/30 05:33:00;;;;;;;2.47;2.33;;;14.70;99.90;;;;;;5092234;28;20157;-60
2023/09/30 05:35:26;;;;;;;2.13;1.83;;;14.80;99.90;;;;;;5091603;28;20411;-60
2023/09/30 05:37:53;;;;;;;1.67;1.20;;;14.80;99.90;;;;;;5091802;28;20459;-59
2023/09/30 05:40:22;;;;;;;2.93;2.73;;;14.80;99.90;;;;;;5092257;28;20399;-60
2023/09/30 05:42:51;;;;;;;4.83;1.60;;;14.70;99.90;;;;;;5092157;28;20398;-60
2023/09/30 05:45:17;;;;;;;3.30;1.83;;;14.60;99.90;;;;;;5091829;28;20621;-60
2023/09/30 05:47:44;;;;;;;3.23;1.80;;;14.70;99.90;;;;;;5091641;28;20431;-60
2023/09/30 05:50:14;;;;;;;4.37;1.63;;;14.70;99.90;;;;;;5091910;28;20405;-60
2023/09/30 05:52:40;;;;;;;1.07;1.07;;;14.80;99.90;;;;;;5092125;28;20409;-60
2023/09/30 05:55:06;;;;;;;1.80;1.70;;;15.00;99.90;;;;;;5091990;28;20497;-60
2023/09/30 05:57:32;;;;;;;2.40;0.90;;;15.00;99.90;;;;;;5091570;28;21053;-59
2023/09/30 05:59:58;;;;;;;3.73;0.90;;;15.10;99.90;;;;;;5091718;28;20494;-60
2023/09/30 06:02:24;;;;;;;2.40;0.90;;;15.00;99.90;;;;;;5091510;28;20416;-61
2023/09/30 06:04:52;;;;;;;3.13;2.00;;;14.80;99.90;;;;;;5091355;28;20693;-59
2023/09/30 06:07:19;;;;;;;1.53;0.60;;;14.80;99.90;;;;;;5091419;28;20429;-60
2023/09/30 06:09:48;;;;;;;2.73;1.20;;;14.70;99.90;;;;;;5091631;28;20395;-60
2023/09/30 06:12:13;;;;;;;5.30;1.80;;;14.80;99.90;;;;;;5090650;28;20402;-59
2023/09/30 06:14:40;;;;;;;10.37;2.53;;;15.00;99.90;;;;;;5091413;28;20509;-60
2023/09/30 06:17:07;;;;;;;0.90;0.90;;;15.20;99.90;;;;;;5091183;28;20218;-60
2023/09/30 06:19:32;;;;;;;3.93;3.20;;;15.10;99.90;;;;;;5091457;28;20411;-59
2023/09/30 06:21:58;;;;;;;1.23;1.07;;;15.10;99.90;;;;;;5091581;28;20410;-60
2023/09/30 06:24:24;;;;;;;7.17;2.97;;;15.10;99.90;;;;;;5091528;28;20249;-60
2023/09/30 06:26:50;;;;;;;1.07;1.07;;;15.20;99.90;;;;;;5091026;28;20422;-60
2023/09/30 06:29:15;;;;;;;2.20;1.43;;;15.40;99.90;;;;;;5091492;28;20157;-60
2023/09/30 06:31:41;;;;;;;1.67;1.10;;;15.50;99.90;;;;;;5091657;28;20251;-60
2023/09/30 06:34:07;;;;;;;4.40;1.77;;;15.70;99.90;;;;;;5091482;28;20201;-60
2023/09/30 06:36:32;;;;;;;1.63;1.33;;;15.80;99.90;;;;;;5093531;28;20284;-60
2023/09/30 06:38:58;;;;;;;1.33;1.23;;;16.00;99.90;;;;;;5094885;28;20193;-60
2023/09/30 06:41:25;;;;;;;3.53;1.70;;;16.20;99.90;;;;;;5095490;28;20665;-60
2023/09/30 06:43:51;;;;;;;1.37;0.90;;;16.30;99.90;;;;;;5095390;28;20585;-60
2023/09/30 06:46:17;;;;;;;1.47;1.10;;;16.40;99.90;;;;;;5095168;28;20430;-60
2023/09/30 06:48:43;;;;;;;3.03;1.70;;;16.50;99.90;;;;;;5095487;28;20402;-59
2023/09/30 06:51:14;;;;;;;4.20;1.23;;;16.50;99.90;;;;;;5095423;28;20169;-61
2023/09/30 06:53:40;;;;;;;2.40;1.33;;;16.50;99.90;;;;;;5095138;28;20635;-61
2023/09/30 06:56:06;;;;;;;2.30;2.00;;;16.60;99.90;;;;;;5094590;28;20430;-60
2023/09/30 06:58:32;;;;;;;1.07;0.97;;;16.60;99.90;;;;;;5095315;28;20161;-60
2023/09/30 07:00:57;;;;;;;1.33;1.23;;;16.70;99.90;;;;;;5095142;28;20485;-60
2023/09/30 07:03:23;;;;;;;2.40;1.50;;;16.90;99.90;;;;;;5094910;28;20547;-59
2023/09/30 07:05:54;;;;;;;2.13;1.43;;;17.10;99.90;;;;;;5094591;28;20313;-61
2023/09/30 07:08:21;;;;;;;3.13;1.87;;;17.20;99.90;;;;;;5094975;28;20594;-59
2023/09/30 07:10:49;;;;;;;3.40;2.23;;;17.20;99.90;;;;;;5094843;28;20485;-60
2023/09/30 07:13:16;;;;;;;2.20;1.77;;;17.20;99.90;;;;;;5094662;28;20393;-60
2023/09/30 07:15:42;;;;;;;5.80;1.93;;;17.40;99.90;;;;;;5094624;28;20885;-61
2023/09/30 07:18:08;;;;;;;2.03;1.13;;;17.60;99.80;;;;;;5094274;28;20496;-60
2023/09/30 07:20:33;;;;;;;3.67;1.97;;;17.80;99.00;;;;;;5094642;28;20187;-60
2023/09/30 07:23:01;;;;;;;1.57;1.47;;;18.00;98.70;;;;;;5094669;28;20407;-60
2023/09/30 07:25:27;;;;;;;1.83;1.33;;;18.10;98.80;;;;;;5094615;28;20270;-60
2023/09/30 07:27:53;;;;;;;1.40;1.30;;;18.30;98.60;;;;;;5093788;28;20913;-60
2023/09/30 07:30:18;;;;;;;2.40;2.20;;;18.50;98.60;;;;;;5094608;28;20493;-60
2023/09/30 07:32:45;;;;;;;2.63;1.70;;;18.60;98.40;;;;;;5094735;28;20403;-60
2023/09/30 07:35:12;;;;;;;2.63;2.43;;;18.80;98.10;;;;;;5094396;28;20173;-59
2023/09/30 07:37:37;;;;;;;8.70;1.93;;;19.00;97.50;;;;;;5093892;28;20441;-60
2023/09/30 07:40:05;;;;;;;3.60;2.20;;;19.20;97.20;;;;;;5094396;28;20408;-60
2023/09/30 07:42:30;;;;;;;5.53;2.67;;;19.40;96.70;;;;;;5094630;28;20167;-60
2023/09/30 07:44:56;;;;;;;5.07;2.60;;;19.70;95.80;;;;;;5094366;28;20554;-60
2023/09/30 07:47:21;;;;;;;2.87;2.47;;;19.90;95.40;;;;;;5093874;28;20236;-59
2023/09/30 07:49:47;;;;;;;4.20;2.23;;;20.20;94.40;;;;;;5094311;28;20162;-60
2023/09/30 07:52:13;;;;;;;4.30;2.47;;;20.20;93.60;;;;;;5094257;28;20636;-60
2023/09/30 07:54:38;;;;;;;2.13;2.03;;;20.40;93.70;;;;;;5093915;28;20179;-60
2023/09/30 07:57:04;;;;;;;3.67;2.40;;;20.80;93.70;;;;;;5093705;28;20199;-60
2023/09/30 07:59:30;;;;;;;6.30;1.70;;;21.00;92.90;;;;;;5093996;28;20267;-60
2023/09/30 08:01:57;;;;;;;8.73;1.90;;;21.20;92.50;;;;;;5094071;28;20537;-60
2023/09/30 08:04:22;;;;;;;6.60;2.10;;;21.50;92.20;;;;;;5093715;28;20280;-60
2023/09/30 08:06:49;;;;;;;5.03;2.77;;;21.70;92.00;;;;;;5093156;28;20934;-60
2023/09/30 08:09:15;;;;;;;6.37;2.43;;;21.80;92.00;;;;;;5092517;28;20642;-60
2023/09/30 08:11:41;;;;;;;9.13;3.07;;;21.80;89.70;;;;;;5093399;28;20469;-59
2023/09/30 08:14:08;;;;;;;4.07;2.17;;;21.80;90.00;;;;;;5093761;28;20402;-60
2023/09/30 08:16:35;;;;;;;4.20;1.57;;;21.90;88.30;;;;;;5111851;22;20556;-59
2023/09/30 08:19:00;;;;;;;4.27;2.40;;;21.90;88.60;;;;;;5093582;28;20460;-59
2023/09/30 08:21:26;;;;;;;3.20;1.43;;;21.80;89.10;;;;;;5093472;28;20399;-59
2023/09/30 08:23:52;;;;;;;4.80;2.90;;;21.60;88.80;;;;;;5093731;28;20246;-59
2023/09/30 08:26:17;;;;;;;7.17;2.17;;;21.80;89.60;;;;;;5093747;28;20166;-59
2023/09/30 08:28:43;;;;;;;7.90;2.57;;;22.50;88.50;;;;;;5094898;28;20646;-59
2023/09/30 08:31:09;;;;;;;2.63;1.80;;;23.10;85.50;;;;;;5093547;28;20169;-59
2023/09/30 08:33:36;;;;;;;6.63;3.70;;;23.40;84.10;;;;;;5093681;28;20168;-59
2023/09/30 08:36:09;;;;;;;4.80;1.87;;;23.50;82.80;;;;;;5092618;28;20600;-59
2023/09/30 08:38:35;;;;;;;4.03;2.20;;;23.70;82.70;;;;;;5093059;28;20389;-60
2023/09/30 08:41:02;;;;;;;5.70;2.90;;;23.80;82.70;;;;;;5093843;28;20430;-59
2023/09/30 08:43:30;;;;;;;3.30;1.20;;;23.80;81.00;;;;;;5093173;28;20816;-60
2023/09/30 08:45:57;;;;;;;5.57;2.07;;;23.60;81.50;;;;;;5093017;28;20377;-59
2023/09/30 08:48:26;;;;;;;4.33;2.10;;;23.40;81.10;;;;;;5093407;28;20402;-60
2023/09/30 08:50:53;;;;;;;4.60;2.33;;;23.40;81.90;;;;;;5093227;28;20815;-60
2023/09/30 08:53:20;;;;;;;3.67;1.40;;;23.70;81.90;;;;;;5093294;28;20411;-59
2023/09/30 08:55:47;;;;;;;2.73;1.33;;;23.90;79.10;;;;;;5092934;28;20811;-60
2023/09/30 08:58:13;;;;;;;5.63;2.63;;;23.80;78.20;;;;;;5092138;28;20431;-59
2023/09/30 09:00:39;;;;;;;3.80;2.47;;;24.60;77.60;;;;;;5093003;28;20409;-60
2023/09/30 09:03:08;;;;;;;7.10;2.27;;;25.40;73.30;;;;;;5092944;28;20949;-60
2023/09/30 09:05:34;;;;;;;6.80;2.93;;;25.80;69.90;;;;;;5092667;28;20915;-60
2023/09/30 09:08:00;;;;;;;8.30;3.23;;;25.90;70.50;;;;;;5092680;28;20419;-60
2023/09/30 09:10:25;;;;;;;3.23;2.20;;;25.80;69.60;;;;;;5092914;28;20231;-60
2023/09/30 09:12:59;;;;;;;4.60;3.00;;;25.50;69.70;;;;;;5092717;28;20653;-60
2023/09/30 09:15:26;;;;;;;4.60;2.50;;;25.00;70.20;;;;;;5092835;28;20181;-60
2023/09/30 09:17:52;;;;;;;5.43;2.40;;;24.30;70.70;;;;;;5092349;28;20498;-59
2023/09/30 09:20:25;;;;;;;5.17;2.70;;;23.70;73.20;;;;;;5092632;28;20396;-59
2023/09/30 09:22:55;;;;;;;3.13;2.50;;;23.00;76.60;;;;;;5092444;28;20424;-59
2023/09/30 09:25:25;;;;;;;2.40;1.40;;;22.00;78.40;;;;;;5092429;28;20442;-58
2023/09/30 09:27:52;;;;;;;3.23;2.93;;;22.10;79.10;;;;;;5092155;28;20471;-59
2023/09/30 09:30:18;;;;;;;9.50;4.10;;;21.70;82.70;;;;;;5092489;28;20406;-59
2023/09/30 09:33:04;;;;;;;2.70;1.80;;;21.40;83.70;;;;;;5092404;28;20411;-59
2023/09/30 09:35:32;;;;;;;4.40;2.57;;;21.10;84.80;;;;;;5091879;28;20440;-59
2023/09/30 09:38:04;;;;;;;3.27;1.70;;;20.70;87.00;;;;;;5073797;28;20434;-59
2023/09/30 09:40:40;;;;;;;2.90;2.10;;;20.50;87.90;;;;;;5091522;28;20429;-59
2023/09/30 09:43:06;;;;;;;3.50;2.40;;;20.60;88.10;;;;;;5092227;28;20405;-60
2023/09/30 09:45:37;;;;;;;5.43;1.33;;;20.80;87.30;;;;;;5092235;28;20418;-60
2023/09/30 09:48:04;;;;;;;2.60;1.70;;;21.10;86.90;;;;;;5091764;28;20438;-59
2023/09/30 09:50:32;;;;;;;3.00;1.60;;;21.80;84.50;;;;;;5092099;28;20411;-60
2023/09/30 09:53:00;;;;;;;2.43;1.63;;;22.80;84.10;;;;;;5092009;28;20988;-60
2023/09/30 09:55:27;;;;;;;3.20;2.33;;;23.40;78.80;;;;;;5091887;28;20384;-60
2023/09/30 09:57:54;;;;;;;6.50;2.87;;;23.40;78.00;;;;;;5091582;28;20423;-60
2023/09/30 10:00:23;;;;;;;4.00;1.93;;;23.30;77.10;;;;;;5092615;28;20563;-59
2023/09/30 10:02:50;;;;;;;4.10;2.40;;;23.00;76.90;;;;;;5091890;28;20628;-60
2023/09/30 10:05:17;;;;;;;5.20;2.00;;;22.60;78.30;;;;;;5091839;28;20429;-59
2023/09/30 10:08:05;;;;;;;2.77;2.50;;;22.70;79.30;;;;;;5091489;28;20423;-59
2023/09/30 10:10:36;;;;;;;5.03;2.77;;;23.10;79.50;;;;;;5090739;28;20403;-59
2023/09/30 10:13:03;;;;;;;8.03;2.20;;;23.30;78.40;;;;;;5091799;28;20451;-59
2023/09/30 10:15:29;;;;;;;22.93;9.73;;;23.30;79.10;;;;;;5091618;28;20480;-59
2023/09/30 10:18:00;;;;;;;8.40;3.27;;;23.40;78.40;;;;;;5091200;28;20558;-59
2023/09/30 10:20:37;;;;;;;7.23;3.50;;;23.20;79.70;;;;;;5091745;28;20646;-59
2023/09/30 10:23:18;;;;;;;3.93;2.80;;;23.20;79.50;;;;;;5091797;28;20386;-59
2023/09/30 10:25:49;;;;;;;3.83;3.03;;;23.30;79.50;;;;;;5091478;28;20471;-58
2023/09/30 10:28:33;;;;;;;3.63;2.23;;;22.80;80.60;;;;;;5091470;28;20427;-59
2023/09/30 10:31:21;;;;;;;6.00;2.77;;;22.80;81.90;;;;;;5091325;28;20482;-59
2023/09/30 10:33:59;;;;;;;2.50;1.60;;;23.40;82.80;;;;;;5091556;28;20410;-59
2023/09/30 10:36:35;;;;;;;5.30;3.27;;;24.40;79.00;;;;;;5090397;28;20442;-59
2023/09/30 10:39:02;;;;;;;5.07;2.50;;;24.70;74.60;;;;;;5091756;28;20757;-59
2023/09/30 10:41:39;;;;;;;4.33;2.63;;;24.70;75.80;;;;;;5091582;28;20899;-59
2023/09/30 10:44:26;;;;;;;10.27;2.27;;;24.40;74.40;;;;;;5091477;28;20445;-59
2023/09/30 10:46:57;;;;;;;2.63;2.23;;;23.70;75.00;;;;;;5091100;28;20441;-59
2023/09/30 10:49:22;;;;;;;5.17;2.50;;;23.60;76.10;;;;;;5091294;28;20494;-59
2023/09/30 10:51:52;;;;;;;5.07;1.97;;;23.70;75.90;;;;;;5091199;28;20456;-59
2023/09/30 10:54:25;;;;;;;3.30;2.10;;;24.10;74.20;;;;;;5090984;28;20173;-59
2023/09/30 10:56:55;;;;;;;5.37;2.10;;;24.20;70.60;;;;;;5090042;28;20487;-59
2023/09/30 10:59:22;;;;;;;4.30;3.13;;;24.30;72.00;;;;;;5090965;28;20407;-59
2023/09/30 11:01:49;;;;;;;2.83;2.07;;;24.00;73.80;;;;;;5090645;28;20773;-59
2023/09/30 11:04:15;;;;;;;4.47;1.33;;;23.90;74.10;;;;;;5091248;28;20443;-59
2023/09/30 11:06:42;;;;;;;7.10;2.37;;;24.10;73.80;;;;;;5090599;28;20429;-59
2023/09/30 11:09:13;;;;;;;2.80;1.63;;;24.20;74.40;;;;;;5090817;28;20384;-59
2023/09/30 11:11:51;;;;;;;5.00;2.90;;;24.00;78.10;;;;;;5090723;28;20643;-59
2023/09/30 11:14:28;;;;;;;3.93;2.13;;;24.30;76.90;;;;;;5090869;28;20923;-59
2023/09/30 11:16:56;;;;;;;6.40;2.23;;;24.00;74.10;;;;;;5090424;28;20537;-59
2023/09/30 11:19:22;;;;;;;3.43;2.07;;;23.80;76.00;;;;;;5091001;28;20881;-59
2023/09/30 11:21:50;;;;;;;3.57;1.77;;;23.80;77.60;;;;;;5092881;28;20381;-59
2023/09/30 11:24:16;;;;;;;5.47;1.87;;;23.60;76.70;;;;;;5095022;28;20534;-59
2023/09/30 11:26:43;;;;;;;3.27;2.13;;;23.30;76.30;;;;;;5094242;28;20807;-59
2023/09/30 11:29:16;;;;;;;7.70;2.97;;;23.00;76.50;;;;;;5094690;28;20418;-59
2023/09/30 11:31:47;;;;;;;11.07;1.70;;;22.90;78.10;;;;;;5094742;28;20398;-59
2023/09/30 11:34:15;;;;;;;5.47;1.93;;;23.20;79.20;;;;;;5095153;28;20406;-59
2023/09/30 11:37:10;;;;;;;3.50;2.17;;;23.60;78.50;;;;;;5094306;28;20404;-59
2023/09/30 11:39:35;;;;;;;2.03;1.60;;;23.70;75.80;;;;;;5091176;28;20890;-59
2023/09/30 11:42:01;;;;;;;4.10;2.57;;;23.90;76.30;;;;;;5094664;28;20385;-58
2023/09/30 11:44:28;;;;;;;7.57;3.50;;;24.10;74.60;;;;;;5094541;28;20741;-59
2023/09/30 11:46:57;;;;;;;9.07;2.30;;;24.00;77.20;;;;;;5094026;28;20227;-59
2023/09/30 11:49:35;;;;;;;4.43;2.07;;;23.90;75.70;;;;;;5093817;28;20402;-59
2023/09/30 11:52:08;;;;;;;3.60;2.10;;;23.30;78.20;;;;;;5094524;28;20381;-59
2023/09/30 11:54:40;;;;;;;4.57;1.40;;;23.20;75.60;;;;;;5094414;28;20422;-58
2023/09/30 11:57:09;;;;;;;8.23;2.20;;;23.00;74.70;;;;;;5094033;28;20418;-59
2023/09/30 11:59:41;;;;;;;3.37;1.50;;;22.90;73.20;;;;;;5094149;28;20410;-59
2023/09/30 12:02:08;;;;;;;3.23;1.80;;;22.80;74.50;;;;;;5094106;28;20457;-59
2023/09/30 12:04:35;;;;;;;6.30;1.80;;;22.70;75.60;;;;;;5093867;28;20967;-59
2023/09/30 12:07:01;;;;;;;2.77;1.50;;;22.70;76.30;;;;;;5093445;28;20431;-59
2023/09/30 12:09:28;;;;;;;1.83;1.37;;;22.60;77.20;;;;;;5093915;28;20398;-59
2023/09/30 12:11:55;;;;;;;7.33;1.33;;;22.40;75.90;;;;;;5093588;28;20225;-60
2023/09/30 12:14:21;;;;;;;2.60;1.60;;;22.30;75.40;;;;;;5093568;28;20489;-59
2023/09/30 12:16:47;;;;;;;2.53;2.17;;;22.30;78.00;;;;;;5093425;28;21063;-61
2023/09/30 12:19:17;;;;;;;1.90;1.60;;;22.40;78.00;;;;;;5093726;28;20226;-61
2023/09/30 12:21:46;;;;;;;7.30;2.57;;;22.50;77.10;;;;;;5093810;28;20418;-60
2023/09/30 12:24:16;;;;;;;6.97;3.00;;;22.70;77.10;;;;;;5093174;28;20448;-58
2023/09/30 12:26:51;;;;;;;3.17;2.73;;;22.80;76.30;;;;;;5092920;28;20427;-59
2023/09/30 12:29:21;;;;;;;4.70;3.43;;;22.90;76.60;;;;;;5093625;28;20399;-59
2023/09/30 12:31:52;;;;;;;3.70;2.07;;;22.60;75.20;;;;;;5093408;28;20410;-59
2023/09/30 12:34:17;;;;;;;7.33;2.20;;;22.60;76.90;;;;;;5092692;28;20417;-59
2023/09/30 12:36:44;;;;;;;6.27;3.80;;;22.50;74.60;;;;;;5092953;28;20509;-59
2023/09/30 12:39:11;;;;;;;2.30;1.97;;;22.80;75.10;;;;;;5092752;28;20165;-60
2023/09/30 12:41:43;;;;;;;4.07;2.33;;;22.80;75.20;;;;;;5092851;28;20378;-59
2023/09/30 12:44:11;;;;;;;4.10;2.60;;;23.00;75.80;;;;;;5092143;28;20450;-59
2023/09/30 12:46:39;;;;;;;3.07;2.00;;;23.20;79.00;;;;;;5074300;28;20439;-59